Peneda — CSSM — position and weather

sailwx.info

Track history (hours):
 
Tides and Currents Weather Stations Pressure Air Temp Water Temp Dewpoint Dewpoint Depression Visibility Wind Speed Wind Dir Waves Ship Positions

Peneda

Last reported at 2018-Aug-14 18:13 UTC. Time now 2018-Aug-21 03:57 UTC.
Position N 38°28' W 008°57'.

Length 33 m.

Type: Tug. MMSI: 263601670.

Date/timePositionNaut miles runAvg speedWind from/ knotsBaromVisibWave heightAir tempDewpointWater temp
2018-Aug-14 18:13N 38°28' W 008°57'211.5
2018-Aug-14 18:00N 38°27' W 008°59'1310.9
2018-Aug-14 16:50N 38°26' W 009°15'1112.4
2018-Aug-14 15:55N 38°37' W 009°20'510.2
2018-Aug-14 15:28N 38°41' W 009°17'6 0.9
2018-Aug-14 09:16N 38°42' W 009°10'2 3.8
2018-Aug-14 08:52N 38°41' W 009°12'0 0.0
2018-Aug-14 08:25N 38°41' W 009°12'0 0.0
2018-Aug-14 07:43N 38°41' W 009°12'0 0.3
2018-Aug-14 07:20N 38°41' W 009°12'  
2018-Aug-08 09:58N 38°42' W 009°10'510.7
2018-Aug-08 09:28N 38°41' W 009°16'511.4
2018-Aug-08 08:59N 38°37' W 009°21'611.0
2018-Aug-08 08:29N 38°32' W 009°19'810.9
2018-Aug-08 07:43N 38°24' W 009°14'  
2018-Aug-05 21:09N 38°30' W 008°50'2 8.6
2018-Aug-05 20:55N 38°31' W 008°52'0 0.6
2018-Aug-05 20:29N 38°31' W 008°52'  
Track history (hours):
 
Tides and Currents Weather Stations Pressure Air Temp Water Temp Dewpoint Dewpoint Depression Visibility Wind Speed Wind Dir Waves Ship Positions

Peneda

Last reported at 2018-Aug-14 18:13 UTC. Time now 2018-Aug-21 03:57 UTC.
Position N 38°28' W 008°57'.

Length 33 m.

Type: Tug. MMSI: 263601670.

Date/timePositionNaut miles runAvg speedWind from/ knotsBaromVisibWave heightAir tempDewpointWater temp
2018-Aug-14 18:13N 38°28' W 008°57'211.5
2018-Aug-14 18:00N 38°27' W 008°59'1310.9
2018-Aug-14 16:50N 38°26' W 009°15'1112.4
2018-Aug-14 15:55N 38°37' W 009°20'510.2
2018-Aug-14 15:28N 38°41' W 009°17'6 0.9
2018-Aug-14 09:16N 38°42' W 009°10'2 3.8
2018-Aug-14 08:52N 38°41' W 009°12'0 0.0
2018-Aug-14 08:25N 38°41' W 009°12'0 0.0
2018-Aug-14 07:43N 38°41' W 009°12'0 0.3
2018-Aug-14 07:20N 38°41' W 009°12'  
2018-Aug-08 09:58N 38°42' W 009°10'510.7
2018-Aug-08 09:28N 38°41' W 009°16'511.4
2018-Aug-08 08:59N 38°37' W 009°21'611.0
2018-Aug-08 08:29N 38°32' W 009°19'810.9
2018-Aug-08 07:43N 38°24' W 009°14'  
2018-Aug-05 21:09N 38°30' W 008°50'2 8.6
2018-Aug-05 20:55N 38°31' W 008°52'0 0.6
2018-Aug-05 20:29N 38°31' W 008°52'  

Dump ship's entire track history